createdAt,value
2022-09-24T10:44:37.791Z,100547.08
2022-09-24T10:47:31.540Z,100545.26
2022-09-24T10:50:31.597Z,100545.00
2022-09-24T10:53:14.737Z,100541.92
2022-09-24T10:56:12.053Z,100546.02
2022-09-24T10:59:08.849Z,100544.08
2022-09-24T11:01:47.650Z,100545.29
2022-09-24T11:04:36.448Z,100541.65
2022-09-24T11:07:45.986Z,100534.57
2022-09-24T11:10:37.223Z,100538.66
2022-09-24T11:13:11.720Z,100535.62
2022-09-24T11:16:28.740Z,100532.05
2022-09-24T11:19:16.571Z,100533.97
2022-09-24T11:22:17.187Z,100529.61
2022-09-24T11:25:28.306Z,100529.94
2022-09-24T11:28:05.369Z,100534.83
2022-09-24T11:30:50.328Z,100533.52
2022-09-24T11:33:28.975Z,100531.88
2022-09-24T11:36:31.282Z,100528.49
2022-09-24T11:39:08.455Z,100521.92
2022-09-24T11:42:08.680Z,100515.08
2022-09-24T11:44:52.381Z,100509.55
2022-09-24T11:47:57.326Z,100504.12
2022-09-24T11:50:25.713Z,100503.70
2022-09-24T11:53:06.787Z,100503.83
2022-09-24T11:55:39.426Z,100504.99
2022-09-24T11:58:25.275Z,100505.92
2022-09-24T12:01:03.844Z,100502.35
2022-09-24T12:03:57.067Z,100497.16
2022-09-24T12:06:31.545Z,100501.41
2022-09-24T12:09:33.051Z,100500.82
2022-09-24T12:12:10.220Z,100500.61
2022-09-24T12:15:06.097Z,100496.20
2022-09-24T12:17:45.680Z,100497.43
2022-09-24T12:20:23.414Z,100493.33
2022-09-24T12:23:04.622Z,100496.30
2022-09-24T12:25:41.318Z,100498.70
2022-09-24T12:28:35.486Z,100497.39
2022-09-24T12:31:29.593Z,100492.50
2022-09-24T12:34:12.481Z,100494.45
2022-09-24T12:37:11.982Z,100491.19
2022-09-24T12:39:58.319Z,100488.94
2022-09-24T12:42:34.264Z,100487.80
2022-09-24T12:45:03.870Z,100486.14
2022-09-24T12:47:38.931Z,100488.15
2022-09-24T12:50:09.121Z,100484.23
2022-09-24T12:52:42.818Z,100479.14
2022-09-24T12:55:29.145Z,100472.88
2022-09-24T12:57:59.433Z,100464.18
2022-09-24T13:00:36.402Z,100455.85
2022-09-24T13:03:06.732Z,100454.87
2022-09-24T13:05:48.286Z,100458.41
2022-09-24T13:08:23.274Z,100452.30
2022-09-24T13:11:00.896Z,100450.86
2022-09-24T13:13:32.832Z,100449.20
2022-09-24T13:16:04.119Z,100451.19
2022-09-24T13:18:35.549Z,100448.49
2022-09-24T13:21:06.546Z,100444.09
2022-09-24T13:23:37.461Z,100438.50
2022-09-24T13:26:09.398Z,100437.98
2022-09-24T13:28:55.430Z,100437.03
2022-09-24T13:31:49.350Z,100435.23
2022-09-24T13:34:27.886Z,100434.96
2022-09-24T13:37:18.763Z,100434.27
2022-09-24T13:40:07.678Z,100436.91
2022-09-24T13:43:15.115Z,100430.52
2022-09-24T13:45:45.472Z,100424.81
2022-09-24T13:48:28.762Z,100416.18
2022-09-24T13:50:57.063Z,100414.61
2022-09-24T13:53:51.161Z,100415.01
2022-09-24T13:56:20.270Z,100416.23
2022-09-24T13:58:51.594Z,100417.92
2022-09-24T14:01:24.970Z,100417.95
2022-09-24T14:04:02.996Z,100420.17
2022-09-24T14:06:38.032Z,100424.86
2022-09-24T14:09:30.467Z,100415.54
2022-09-24T14:12:01.966Z,100406.05
2022-09-24T14:14:31.017Z,100404.19
2022-09-24T14:17:12.851Z,100409.95
2022-09-24T14:19:41.569Z,100421.64
2022-09-24T14:22:20.543Z,100418.30
2022-09-24T14:24:55.008Z,100406.52
2022-09-24T14:27:26.164Z,100399.80
2022-09-24T14:30:02.547Z,100395.49
2022-09-24T14:32:33.553Z,100388.86
2022-09-24T14:35:29.854Z,100386.81
2022-09-24T14:38:14.435Z,100391.71
2022-09-24T14:40:50.149Z,100396.23
2022-09-24T14:43:31.646Z,100403.58
2022-09-24T14:46:07.808Z,100400.59
2022-09-24T14:48:36.325Z,100394.08
2022-09-24T14:51:04.391Z,100391.42
2022-09-24T14:53:36.293Z,100393.94
2022-09-24T14:56:21.012Z,100393.58
2022-09-24T14:58:49.207Z,100390.59
2022-09-24T15:01:20.110Z,100390.29
2022-09-24T15:03:51.649Z,100394.29
2022-09-24T15:06:20.046Z,100393.64
2022-09-24T15:08:54.351Z,100394.45
2022-09-24T15:11:27.956Z,100388.05
2022-09-24T15:14:27.765Z,100389.19
2022-09-24T15:16:56.891Z,100390.41
2022-09-24T15:19:29.102Z,100388.48
2022-09-24T15:21:58.182Z,100392.06
2022-09-24T15:24:26.630Z,100393.13
2022-09-24T15:27:04.007Z,100385.45
2022-09-24T15:29:32.952Z,100382.65
2022-09-24T15:32:01.434Z,100382.95
2022-09-24T15:34:29.524Z,100386.90
2022-09-24T15:37:01.803Z,100388.27
2022-09-24T15:39:30.468Z,100379.56
2022-09-24T15:41:58.599Z,100375.09
2022-09-24T15:44:32.980Z,100376.78
2022-09-24T15:47:02.234Z,100381.29
2022-09-24T15:49:30.397Z,100379.99
2022-09-24T15:52:16.874Z,100377.31
2022-09-24T15:54:44.997Z,100381.38
2022-09-24T15:57:12.880Z,100385.48
2022-09-24T15:59:41.008Z,100382.71
2022-09-24T16:02:21.318Z,100388.54
2022-09-24T16:04:49.350Z,100389.27
2022-09-24T16:07:18.450Z,100392.70
2022-09-24T16:09:46.589Z,100395.48
2022-09-24T16:12:19.307Z,100402.42
2022-09-24T16:14:47.904Z,100402.00
2022-09-24T16:17:16.383Z,100400.13
2022-09-24T16:19:44.946Z,100398.78
2022-09-24T16:22:16.855Z,100399.77
2022-09-24T16:24:48.248Z,100400.07
2022-09-24T16:27:16.768Z,100392.57
2022-09-24T16:29:44.873Z,100387.09
2022-09-24T16:32:14.260Z,100385.99
2022-09-24T16:34:42.551Z,100382.61
2022-09-24T16:37:10.603Z,100376.39
2022-09-24T16:39:38.506Z,100381.41
2022-09-24T16:42:06.553Z,100388.77
2022-09-24T16:44:35.020Z,100398.52
2022-09-24T16:47:03.409Z,100403.40
2022-09-24T16:49:31.404Z,100406.20
2022-09-24T16:51:59.428Z,100405.45
2022-09-24T16:54:29.673Z,100410.14
2022-09-24T16:56:58.327Z,100410.14
2022-09-24T16:59:26.288Z,100409.45
2022-09-24T17:01:54.483Z,100412.55
2022-09-24T17:04:22.701Z,100413.70
2022-09-24T17:06:54.560Z,100409.48
2022-09-24T17:09:41.533Z,100406.58
2022-09-24T17:12:11.123Z,100410.98
2022-09-24T17:14:39.148Z,100411.81
2022-09-24T17:17:07.434Z,100415.92
2022-09-24T17:19:35.603Z,100417.77
2022-09-24T17:22:03.716Z,100418.13
2022-09-24T17:24:32.629Z,100420.27
2022-09-24T17:27:01.404Z,100418.49
2022-09-24T17:29:31.676Z,100420.91
2022-09-24T17:32:00.222Z,100426.70
2022-09-24T17:34:28.462Z,100431.02
2022-09-24T17:36:59.957Z,100433.80
2022-09-24T17:39:28.124Z,100436.05
2022-09-24T17:41:56.434Z,100438.98
2022-09-24T17:44:24.308Z,100438.63
2022-09-24T17:46:52.287Z,100435.45
2022-09-24T17:49:20.753Z,100434.61
2022-09-24T17:51:49.579Z,100434.19
2022-09-24T17:54:23.497Z,100438.02
2022-09-24T17:56:51.632Z,100435.60
2022-09-24T17:59:24.172Z,100432.43
2022-09-24T18:01:54.376Z,100435.92
2022-09-24T18:04:23.018Z,100434.88
2022-09-24T18:06:51.101Z,100435.36
2022-09-24T18:09:20.109Z,100434.04
2022-09-24T18:11:51.413Z,100432.83
2022-09-24T18:14:22.261Z,100433.83
2022-09-24T18:16:51.643Z,100431.23
2022-09-24T18:19:20.154Z,100430.20
2022-09-24T18:21:49.392Z,100433.42
2022-09-24T18:24:17.964Z,100434.79
2022-09-24T18:26:51.369Z,100432.52
2022-09-24T18:29:21.231Z,100433.65
2022-09-24T18:31:51.581Z,100438.11
2022-09-24T18:34:19.815Z,100435.05
2022-09-24T18:36:47.823Z,100434.14
2022-09-24T18:39:22.185Z,100432.98
2022-09-24T18:41:52.529Z,100429.79
2022-09-24T18:44:21.424Z,100429.29
2022-09-24T18:46:49.995Z,100428.86
2022-09-24T18:49:19.633Z,100428.05
2022-09-24T18:51:49.429Z,100429.77
2022-09-24T18:54:18.538Z,100433.63
2022-09-24T18:56:46.753Z,100431.98
2022-09-24T18:59:20.054Z,100434.08
2022-09-24T19:01:49.411Z,100432.80
2022-09-24T19:04:18.125Z,100431.35
2022-09-24T19:06:51.787Z,100435.27
2022-09-24T19:09:20.404Z,100432.61
2022-09-24T19:11:49.217Z,100433.13
2022-09-24T19:14:18.747Z,100428.28
2022-09-24T19:16:48.416Z,100427.70
2022-09-24T19:19:16.716Z,100427.72
2022-09-24T19:21:45.577Z,100428.89
2022-09-24T19:24:14.159Z,100424.95
2022-09-24T19:26:43.436Z,100425.42
2022-09-24T19:29:12.183Z,100424.54
2022-09-24T19:31:42.869Z,100420.61
2022-09-24T19:34:13.466Z,100424.21
2022-09-24T19:36:44.050Z,100429.03
2022-09-24T19:39:18.501Z,100432.45
2022-09-24T19:41:46.677Z,100427.98
2022-09-24T19:44:16.534Z,100424.98
2022-09-24T19:46:45.490Z,100421.42
2022-09-24T19:49:14.114Z,100419.38
2022-09-24T19:51:42.400Z,100417.39
2022-09-24T19:54:11.416Z,100417.92
2022-09-24T19:56:40.119Z,100411.59
2022-09-24T19:59:09.773Z,100413.98
2022-09-24T20:01:38.131Z,100412.45
2022-09-24T20:04:07.521Z,100414.87
2022-09-24T20:06:39.101Z,100418.35
2022-09-24T20:09:07.400Z,100419.19
2022-09-24T20:11:35.664Z,100418.09
2022-09-24T20:14:06.270Z,100418.16
2022-09-24T20:16:34.611Z,100418.02
2022-09-24T20:19:03.629Z,100415.98
2022-09-24T20:21:37.140Z,100410.63
2022-09-24T20:24:07.786Z,100410.77
2022-09-24T20:26:54.255Z,100410.38
2022-09-24T20:29:23.629Z,100411.34
2022-09-24T20:31:55.572Z,100409.09
2022-09-24T20:34:33.503Z,100408.29
2022-09-24T20:37:04.604Z,100411.87
2022-09-24T20:39:32.771Z,100406.78
2022-09-24T20:42:06.261Z,100401.81
2022-09-24T20:44:36.250Z,100403.91
2022-09-24T20:47:04.368Z,100401.45
2022-09-24T20:49:33.713Z,100407.75
2022-09-24T20:52:03.712Z,100408.75
2022-09-24T20:54:33.820Z,100410.09
2022-09-24T20:57:01.976Z,100410.64
2022-09-24T20:59:30.840Z,100408.04
2022-09-24T21:01:59.288Z,100406.34
2022-09-24T21:04:27.712Z,100404.77
2022-09-24T21:06:55.517Z,100412.77
2022-09-24T21:09:23.629Z,100407.90
2022-09-24T21:11:53.352Z,100407.17
2022-09-24T21:14:22.191Z,100405.27
2022-09-24T21:16:50.133Z,100405.81
2022-09-24T21:19:18.681Z,100409.89
2022-09-24T21:21:47.418Z,100415.77
2022-09-24T21:24:16.298Z,100412.36
2022-09-24T21:26:45.532Z,100409.73
2022-09-24T21:29:18.759Z,100407.74
2022-09-24T21:31:47.966Z,100404.88
2022-09-24T21:34:20.669Z,100404.10
2022-09-24T21:36:49.656Z,100402.48
2022-09-24T21:39:23.381Z,100395.56
2022-09-24T21:41:55.329Z,100388.48
2022-09-24T21:44:23.402Z,100384.27
2022-09-24T21:46:52.738Z,100385.38
2022-09-24T21:49:21.304Z,100383.45
2022-09-24T21:51:49.511Z,100387.53
2022-09-24T21:54:18.507Z,100387.02
2022-09-24T21:56:46.945Z,100389.43
2022-09-24T21:59:35.291Z,100387.55
2022-09-24T22:02:04.126Z,100388.35
2022-09-24T22:04:33.638Z,100390.98
2022-09-24T22:07:02.813Z,100393.02
2022-09-24T22:09:32.452Z,100391.65
2022-09-24T22:12:02.846Z,100392.06
2022-09-24T22:14:32.646Z,100389.10
2022-09-24T22:17:02.847Z,100380.25
2022-09-24T22:19:31.254Z,100377.70
2022-09-24T22:21:59.296Z,100376.84
2022-09-24T22:24:27.945Z,100375.38
2022-09-24T22:26:55.765Z,100375.87
2022-09-24T22:29:23.956Z,100375.04
2022-09-24T22:31:51.986Z,100372.27
2022-09-24T22:34:38.613Z,100371.42
2022-09-24T22:37:07.114Z,100371.34
2022-09-24T22:39:35.624Z,100372.65
2022-09-24T22:42:04.205Z,100373.07
2022-09-24T22:44:32.049Z,100371.14
2022-09-24T22:47:00.812Z,100369.20
2022-09-24T22:49:29.170Z,100370.50
2022-09-24T22:51:56.955Z,100369.77
2022-09-24T22:54:25.059Z,100367.87
2022-09-24T22:56:52.923Z,100367.25
2022-09-24T22:59:20.924Z,100369.95
2022-09-24T23:01:49.002Z,100368.20
2022-09-24T23:04:17.563Z,100365.36
2022-09-24T23:06:45.511Z,100364.31
2022-09-24T23:09:13.731Z,100366.21
2022-09-24T23:11:41.774Z,100366.36
2022-09-24T23:14:15.657Z,100371.16
2022-09-24T23:16:44.299Z,100372.39
2022-09-24T23:19:19.237Z,100367.73
2022-09-24T23:21:47.941Z,100368.67
2022-09-24T23:24:22.028Z,100366.46
2022-09-24T23:26:51.550Z,100364.38
2022-09-24T23:29:21.347Z,100363.89
2022-09-24T23:31:50.417Z,100364.55
2022-09-24T23:34:18.304Z,100367.35
2022-09-24T23:36:46.508Z,100360.11
2022-09-24T23:39:15.384Z,100362.17
2022-09-24T23:41:43.207Z,100362.79
2022-09-24T23:44:11.459Z,100361.67
2022-09-24T23:46:39.572Z,100362.69
2022-09-24T23:49:07.658Z,100365.65
2022-09-24T23:51:35.940Z,100362.81
2022-09-24T23:54:04.189Z,100359.98
2022-09-24T23:56:32.242Z,100356.14
2022-09-24T23:59:00.329Z,100351.84
